createdAt,value
2023-04-23T00:00:54.221Z,24.62
2023-04-23T00:01:51.642Z,24.61
2023-04-23T00:02:51.699Z,24.62
2023-04-23T00:03:51.744Z,24.63
2023-04-23T00:04:51.790Z,24.64
2023-04-23T00:05:51.586Z,24.63
2023-04-23T00:06:51.679Z,24.63
2023-04-23T00:07:51.595Z,24.64
2023-04-23T00:08:51.559Z,24.64
2023-04-23T00:09:51.573Z,24.64
2023-04-23T00:10:51.604Z,24.64
2023-04-23T00:11:51.561Z,24.64
2023-04-23T00:12:51.584Z,24.64
2023-04-23T00:13:51.580Z,24.64
2023-04-23T00:14:51.540Z,24.65
2023-04-23T00:15:51.558Z,24.65
2023-04-23T00:16:51.505Z,24.66
2023-04-23T00:17:51.565Z,24.67
2023-04-23T00:18:51.507Z,24.66
2023-04-23T00:19:51.611Z,24.65
2023-04-23T00:20:52.385Z,24.65
2023-04-23T00:21:51.578Z,24.65
2023-04-23T00:22:51.513Z,24.65
2023-04-23T00:23:51.481Z,24.64
2023-04-23T00:24:51.481Z,24.63
2023-04-23T00:25:51.493Z,24.63
2023-04-23T00:26:51.447Z,24.64
2023-04-23T00:27:51.464Z,24.64
2023-04-23T00:28:51.464Z,24.64
2023-04-23T00:29:51.470Z,24.63
2023-04-23T00:30:51.462Z,24.63
2023-04-23T00:31:51.498Z,24.63
2023-04-23T00:32:51.494Z,24.63
2023-04-23T00:33:51.429Z,24.62
2023-04-23T00:34:51.413Z,24.63
2023-04-23T00:35:51.416Z,24.64
2023-04-23T00:36:51.410Z,24.64
2023-04-23T00:37:51.437Z,24.63
2023-04-23T00:38:51.387Z,24.63
2023-04-23T00:39:51.375Z,24.63
2023-04-23T00:40:51.407Z,24.63
2023-04-23T00:41:51.355Z,24.63
2023-04-23T00:42:51.344Z,24.63
2023-04-23T00:43:51.348Z,24.63
2023-04-23T00:44:51.373Z,24.63
2023-04-23T00:45:51.399Z,24.64
2023-04-23T00:46:51.323Z,24.64
2023-04-23T00:47:51.349Z,24.65
2023-04-23T00:48:51.302Z,24.64
2023-04-23T00:49:51.311Z,24.65
2023-04-23T00:50:51.285Z,24.65
2023-04-23T00:51:51.341Z,24.65
2023-04-23T00:52:51.285Z,24.64
2023-04-23T00:53:51.287Z,24.65
2023-04-23T00:54:51.278Z,24.64
2023-04-23T00:55:51.355Z,24.64
2023-04-23T00:56:51.276Z,24.64
2023-04-23T00:57:51.272Z,24.65
2023-04-23T00:58:51.280Z,24.65
2023-04-23T00:59:51.249Z,24.65
2023-04-23T01:00:51.275Z,24.64
2023-04-23T01:01:51.238Z,24.64
2023-04-23T01:02:51.344Z,24.65
2023-04-23T01:03:51.416Z,24.64
2023-04-23T01:04:51.242Z,24.64
2023-04-23T01:05:51.211Z,24.64
2023-04-23T01:06:51.186Z,24.64
2023-04-23T01:07:51.205Z,24.64
2023-04-23T01:08:51.178Z,24.64
2023-04-23T01:09:51.187Z,24.64
2023-04-23T01:10:51.158Z,24.64
2023-04-23T01:11:51.160Z,24.63
2023-04-23T01:12:51.403Z,24.63
2023-04-23T01:13:51.142Z,24.64
2023-04-23T01:14:51.133Z,24.63
2023-04-23T01:15:51.142Z,24.62
2023-04-23T01:16:51.152Z,24.62
2023-04-23T01:17:51.191Z,24.63
2023-04-23T01:18:51.094Z,24.63
2023-04-23T01:19:51.103Z,24.64
2023-04-23T01:20:51.092Z,24.64
2023-04-23T01:21:51.105Z,24.65
2023-04-23T01:22:51.108Z,24.65
2023-04-23T01:23:51.088Z,24.66
2023-04-23T01:24:51.063Z,24.66
2023-04-23T01:25:51.070Z,24.67
2023-04-23T01:26:51.040Z,24.65
2023-04-23T01:27:51.068Z,24.67
2023-04-23T01:28:51.031Z,24.67
2023-04-23T01:29:51.041Z,24.67
2023-04-23T01:30:51.058Z,24.67
2023-04-23T01:31:51.021Z,24.67
2023-04-23T01:32:51.022Z,24.67
2023-04-23T01:33:50.991Z,24.67
2023-04-23T01:34:51.020Z,24.67
2023-04-23T01:35:50.981Z,24.68
2023-04-23T01:36:50.975Z,24.68
2023-04-23T01:37:50.965Z,24.68
2023-04-23T01:38:50.992Z,24.66
2023-04-23T01:39:50.968Z,24.68
2023-04-23T01:40:50.958Z,24.67
2023-04-23T01:41:50.942Z,24.69
2023-04-23T01:42:50.976Z,24.69
2023-04-23T01:43:50.904Z,24.69
2023-04-23T01:44:50.961Z,24.71
2023-04-23T01:45:50.928Z,24.71
2023-04-23T01:46:50.919Z,24.72
2023-04-23T01:47:50.905Z,24.73
2023-04-23T01:48:50.917Z,24.73
2023-04-23T01:49:50.903Z,24.73
2023-04-23T01:50:50.931Z,24.73
2023-04-23T01:51:50.921Z,24.73
2023-04-23T01:52:50.887Z,24.73
2023-04-23T01:53:50.867Z,24.73
2023-04-23T01:54:50.890Z,24.74
2023-04-23T01:55:50.864Z,24.74
2023-04-23T01:56:50.870Z,24.74
2023-04-23T01:57:50.852Z,24.75
2023-04-23T01:58:50.835Z,24.75
2023-04-23T01:59:50.830Z,24.74
2023-04-23T02:00:52.524Z,24.74
2023-04-23T02:01:50.854Z,24.74
2023-04-23T02:02:50.916Z,24.74
2023-04-23T02:03:50.897Z,24.74
2023-04-23T02:04:50.771Z,24.73
2023-04-23T02:05:50.765Z,24.74
2023-04-23T02:06:50.818Z,24.73
2023-04-23T02:07:50.781Z,24.73
2023-04-23T02:08:50.779Z,24.73
2023-04-23T02:09:50.772Z,24.73
2023-04-23T02:10:50.752Z,24.72
2023-04-23T02:11:50.779Z,24.73
2023-04-23T02:12:50.719Z,24.73
2023-04-23T02:13:50.748Z,24.73
2023-04-23T02:14:50.710Z,24.72
2023-04-23T02:15:50.739Z,24.73
2023-04-23T02:16:50.723Z,24.73
2023-04-23T02:17:50.748Z,24.72
2023-04-23T02:18:50.693Z,24.72
2023-04-23T02:19:50.719Z,24.72
2023-04-23T02:20:50.734Z,24.72
2023-04-23T02:21:50.663Z,24.73
2023-04-23T02:22:50.695Z,24.73
2023-04-23T02:23:50.694Z,24.73
2023-04-23T02:24:50.664Z,24.73
2023-04-23T02:25:50.692Z,24.73
2023-04-23T02:26:50.673Z,24.73
2023-04-23T02:27:50.690Z,24.73
2023-04-23T02:28:50.666Z,24.74
2023-04-23T02:29:50.622Z,24.74
2023-04-23T02:30:50.653Z,24.73
2023-04-23T02:31:50.698Z,24.73
2023-04-23T02:32:50.662Z,24.73
2023-04-23T02:33:50.621Z,24.73
2023-04-23T02:34:50.592Z,24.73
2023-04-23T02:35:50.633Z,24.72
2023-04-23T02:36:50.583Z,24.73
2023-04-23T02:37:50.563Z,24.75
2023-04-23T02:38:50.579Z,24.75
2023-04-23T02:39:50.616Z,24.74
2023-04-23T02:40:50.566Z,24.73
2023-04-23T02:41:50.581Z,24.72
2023-04-23T02:42:50.568Z,24.72
2023-04-23T02:43:50.551Z,24.71
2023-04-23T02:44:50.567Z,24.70
2023-04-23T02:45:50.520Z,24.70
2023-04-23T02:46:50.557Z,24.70
2023-04-23T02:47:50.570Z,24.69
2023-04-23T02:48:50.516Z,24.69
2023-04-23T02:49:50.525Z,24.69
2023-04-23T02:50:50.509Z,24.68
2023-04-23T02:51:50.481Z,24.70
2023-04-23T02:52:50.485Z,24.69
2023-04-23T02:53:50.492Z,24.70
2023-04-23T02:54:50.469Z,24.71
2023-04-23T02:55:50.470Z,24.70
2023-04-23T02:56:50.432Z,24.70
2023-04-23T02:57:50.446Z,24.69
2023-04-23T02:58:50.487Z,24.69
2023-04-23T02:59:50.422Z,24.70
2023-04-23T03:00:50.485Z,24.69
2023-04-23T03:01:50.442Z,24.69
2023-04-23T03:02:50.508Z,24.68
2023-04-23T03:03:50.495Z,24.68
2023-04-23T03:04:50.423Z,24.68
2023-04-23T03:05:50.379Z,24.68
2023-04-23T03:06:50.443Z,24.67
2023-04-23T03:07:50.380Z,24.68
2023-04-23T03:08:50.371Z,24.67
2023-04-23T03:09:50.403Z,24.67
2023-04-23T03:10:50.334Z,24.68
2023-04-23T03:11:50.328Z,24.69
2023-04-23T03:12:50.375Z,24.69
2023-04-23T03:13:50.328Z,24.69
2023-04-23T03:14:50.370Z,24.68
2023-04-23T03:15:50.429Z,24.69
2023-04-23T03:16:50.534Z,24.68
2023-04-23T03:17:50.657Z,24.69
2023-04-23T03:18:50.601Z,24.69
2023-04-23T03:19:50.683Z,24.70
2023-04-23T03:20:50.693Z,24.69
2023-04-23T03:21:50.758Z,24.69
2023-04-23T03:22:50.829Z,24.70
2023-04-23T03:23:50.904Z,24.68
2023-04-23T03:24:51.492Z,24.68
2023-04-23T03:25:51.014Z,24.68
2023-04-23T03:26:51.062Z,24.69
2023-04-23T03:27:51.136Z,24.69
2023-04-23T03:28:51.205Z,24.68
2023-04-23T03:29:51.249Z,24.70
2023-04-23T03:30:51.361Z,24.70
2023-04-23T03:31:51.375Z,24.69
2023-04-23T03:32:51.446Z,24.68
2023-04-23T03:33:51.478Z,24.68
2023-04-23T03:34:52.496Z,24.69
2023-04-23T03:35:51.559Z,24.69
2023-04-23T03:36:51.651Z,24.69
2023-04-23T03:37:51.725Z,24.68
2023-04-23T03:38:51.741Z,24.68
2023-04-23T03:39:51.794Z,24.70
2023-04-23T03:40:51.834Z,24.69
2023-04-23T03:41:51.918Z,24.69
2023-04-23T03:42:52.016Z,24.68
2023-04-23T03:43:52.042Z,24.69
2023-04-23T03:44:52.076Z,24.69
2023-04-23T03:45:52.146Z,24.69
2023-04-23T03:46:52.279Z,24.69
2023-04-23T03:47:52.297Z,24.70
2023-04-23T03:48:52.320Z,24.70
2023-04-23T03:49:52.426Z,24.71
2023-04-23T03:50:52.464Z,24.69
2023-04-23T03:51:52.502Z,24.69
2023-04-23T03:52:52.544Z,24.69
2023-04-23T03:53:52.536Z,24.69
2023-04-23T03:54:52.555Z,24.70
2023-04-23T03:55:52.585Z,24.71
2023-04-23T03:56:52.572Z,24.70
2023-04-23T03:57:52.584Z,24.70
2023-04-23T03:58:52.605Z,24.70
2023-04-23T03:59:52.598Z,24.70
2023-04-23T04:00:52.592Z,24.70
2023-04-23T04:01:52.605Z,24.71
2023-04-23T04:02:52.770Z,24.70
2023-04-23T04:03:53.084Z,24.70
2023-04-23T04:04:52.846Z,24.70
2023-04-23T04:05:52.771Z,24.71
2023-04-23T04:06:52.999Z,24.72
2023-04-23T04:07:52.670Z,24.72
2023-04-23T04:08:52.640Z,24.71
2023-04-23T04:09:52.654Z,24.71
2023-04-23T04:10:52.686Z,24.72
2023-04-23T04:11:53.404Z,24.71
2023-04-23T04:12:52.726Z,24.72
2023-04-23T04:13:52.731Z,24.72
2023-04-23T04:14:52.738Z,24.72
2023-04-23T04:15:52.877Z,24.72
2023-04-23T04:16:52.799Z,24.72
2023-04-23T04:17:52.896Z,24.72
2023-04-23T04:18:55.118Z,24.72
2023-04-23T04:19:52.813Z,24.73
2023-04-23T04:20:52.818Z,24.72
2023-04-23T04:21:52.783Z,24.72
2023-04-23T04:22:52.771Z,24.72
2023-04-23T04:23:52.781Z,24.73
2023-04-23T04:24:52.840Z,24.73
2023-04-23T04:25:52.776Z,24.74
2023-04-23T04:26:52.793Z,24.74
2023-04-23T04:27:52.751Z,24.73
2023-04-23T04:28:52.764Z,24.73
2023-04-23T04:29:52.734Z,24.74
2023-04-23T04:30:52.748Z,24.73
2023-04-23T04:31:52.945Z,24.73
2023-04-23T04:32:52.758Z,24.74
2023-04-23T04:33:52.736Z,24.72
2023-04-23T04:34:52.702Z,24.73
2023-04-23T04:35:52.712Z,24.73
2023-04-23T04:36:52.710Z,24.74
2023-04-23T04:37:52.719Z,24.74
2023-04-23T04:38:52.775Z,24.75
2023-04-23T04:39:52.694Z,24.74
2023-04-23T04:40:52.643Z,24.75
2023-04-23T04:41:52.678Z,24.75
2023-04-23T04:42:52.650Z,24.76
2023-04-23T04:43:52.704Z,24.76
2023-04-23T04:44:52.623Z,24.76
2023-04-23T04:45:52.637Z,24.75
2023-04-23T04:46:52.625Z,24.75
2023-04-23T04:47:52.695Z,24.75
2023-04-23T04:48:52.635Z,24.75
2023-04-23T04:49:52.590Z,24.76
2023-04-23T04:50:52.582Z,24.76
2023-04-23T04:51:52.576Z,24.76
2023-04-23T04:52:52.623Z,24.77
2023-04-23T04:53:52.585Z,24.76
2023-04-23T04:54:52.578Z,24.76
2023-04-23T04:55:52.567Z,24.76
2023-04-23T04:56:52.572Z,24.76
2023-04-23T04:57:52.557Z,24.75
2023-04-23T04:58:52.580Z,24.75
2023-04-23T04:59:52.538Z,24.74
2023-04-23T05:00:52.561Z,24.75
2023-04-23T05:01:52.521Z,24.74
2023-04-23T05:02:52.691Z,24.75
2023-04-23T05:03:52.684Z,24.74
2023-04-23T05:04:52.511Z,24.73
2023-04-23T05:05:52.513Z,24.73
2023-04-23T05:06:52.497Z,24.73
2023-04-23T05:07:52.477Z,24.73
2023-04-23T05:08:52.494Z,24.72
2023-04-23T05:09:52.497Z,24.73
2023-04-23T05:10:52.491Z,24.73
2023-04-23T05:11:52.466Z,24.74
2023-04-23T05:12:52.460Z,24.75
2023-04-23T05:13:52.459Z,24.75
2023-04-23T05:14:53.839Z,24.75
2023-04-23T05:15:52.444Z,24.75
2023-04-23T05:16:52.432Z,24.74
2023-04-23T05:17:52.489Z,24.75
2023-04-23T05:18:52.405Z,24.76
2023-04-23T05:19:52.409Z,24.75
2023-04-23T05:20:52.408Z,24.76
2023-04-23T05:21:52.493Z,24.76
2023-04-23T05:22:52.477Z,24.76
2023-04-23T05:23:52.558Z,24.76
2023-04-23T05:24:52.580Z,24.77
2023-04-23T05:25:54.200Z,24.76
2023-04-23T05:26:52.727Z,24.77
2023-04-23T05:27:52.772Z,24.76
2023-04-23T05:28:52.838Z,24.76
2023-04-23T05:29:52.924Z,24.77
2023-04-23T05:30:52.998Z,24.77
2023-04-23T05:31:53.059Z,24.76
2023-04-23T05:32:53.163Z,24.76
2023-04-23T05:33:53.161Z,24.76
2023-04-23T05:34:53.181Z,24.76
2023-04-23T05:35:53.233Z,24.76
2023-04-23T05:36:53.237Z,24.76
2023-04-23T05:37:53.252Z,24.77
2023-04-23T05:38:53.288Z,24.77
2023-04-23T05:39:53.305Z,24.78
2023-04-23T05:40:53.451Z,24.78
2023-04-23T05:41:53.364Z,24.78
2023-04-23T05:42:53.401Z,24.78
2023-04-23T05:43:53.434Z,24.79
2023-04-23T05:44:53.444Z,24.79
2023-04-23T05:45:53.460Z,24.80
2023-04-23T05:46:53.512Z,24.80
2023-04-23T05:47:53.557Z,24.79
2023-04-23T05:48:53.485Z,24.78
2023-04-23T05:49:53.496Z,24.78
2023-04-23T05:50:53.501Z,24.79
2023-04-23T05:51:53.574Z,24.79
2023-04-23T05:52:53.553Z,24.80
2023-04-23T05:53:53.600Z,24.79
2023-04-23T05:54:53.649Z,24.78
2023-04-23T05:55:53.696Z,24.78
2023-04-23T05:56:54.717Z,24.78
2023-04-23T05:57:53.742Z,24.77
2023-04-23T05:58:53.821Z,24.76
2023-04-23T05:59:53.847Z,24.77
2023-04-23T06:00:53.893Z,24.77
2023-04-23T06:01:53.949Z,24.78
2023-04-23T06:02:54.099Z,24.78
2023-04-23T06:03:54.275Z,24.80
2023-04-23T06:04:54.417Z,24.80
2023-04-23T06:05:54.294Z,24.80
2023-04-23T06:06:54.233Z,24.81
2023-04-23T06:07:54.289Z,24.81
2023-04-23T06:08:54.386Z,24.80
2023-04-23T06:09:54.439Z,24.81
2023-04-23T06:10:54.491Z,24.81
2023-04-23T06:11:54.547Z,24.81
2023-04-23T06:12:54.560Z,24.81
2023-04-23T06:13:54.616Z,24.81
2023-04-23T06:14:54.647Z,24.81
2023-04-23T06:15:54.767Z,24.81
2023-04-23T06:16:54.778Z,24.80
2023-04-23T06:17:54.845Z,24.82
2023-04-23T06:18:54.854Z,24.81
2023-04-23T06:19:54.910Z,24.81
2023-04-23T06:20:54.930Z,24.82
2023-04-23T06:21:55.017Z,24.82
2023-04-23T06:22:55.092Z,24.83
2023-04-23T06:23:55.163Z,24.82
2023-04-23T06:24:55.165Z,24.82
2023-04-23T06:25:55.198Z,24.82
2023-04-23T06:26:55.235Z,24.82
2023-04-23T06:27:55.339Z,24.81
2023-04-23T06:28:55.334Z,24.82
2023-04-23T06:29:55.373Z,24.82
2023-04-23T06:30:55.434Z,24.82
2023-04-23T06:31:55.483Z,24.82
2023-04-23T06:32:55.536Z,24.82
2023-04-23T06:33:55.573Z,24.83
2023-04-23T06:35:01.642Z,24.83
2023-04-23T06:35:56.591Z,24.83
2023-04-23T06:36:55.587Z,24.82
2023-04-23T06:37:55.580Z,24.82
2023-04-23T06:38:55.568Z,24.82
2023-04-23T06:39:55.575Z,24.82
2023-04-23T06:40:55.570Z,24.83
2023-04-23T06:41:55.560Z,24.83
2023-04-23T06:42:55.551Z,24.83
2023-04-23T06:43:55.593Z,24.83
2023-04-23T06:44:55.666Z,24.82
2023-04-23T06:45:55.668Z,24.82
2023-04-23T06:46:55.715Z,24.82
2023-04-23T06:47:55.803Z,24.82
2023-04-23T06:48:55.825Z,24.83
2023-04-23T06:49:55.860Z,24.83
2023-04-23T06:50:55.947Z,24.83
2023-04-23T06:51:57.763Z,24.84
2023-04-23T06:52:56.037Z,24.83
2023-04-23T06:53:56.065Z,24.84
2023-04-23T06:54:56.129Z,24.84
2023-04-23T06:55:56.198Z,24.84
2023-04-23T06:56:56.264Z,24.84
2023-04-23T06:57:56.283Z,24.84
2023-04-23T06:58:56.343Z,24.84
2023-04-23T06:59:56.389Z,24.83
2023-04-23T07:00:56.462Z,24.84
2023-04-23T07:01:56.477Z,24.84
2023-04-23T07:02:56.571Z,24.83
2023-04-23T07:03:56.605Z,24.83
2023-04-23T07:04:56.622Z,24.83
2023-04-23T07:05:56.649Z,24.85
2023-04-23T07:06:56.734Z,24.85
2023-04-23T07:07:56.744Z,24.85
2023-04-23T07:08:56.775Z,24.84
2023-04-23T07:09:56.870Z,24.85
2023-04-23T07:10:56.895Z,24.85
2023-04-23T07:11:56.958Z,24.85
2023-04-23T07:12:57.165Z,24.85
2023-04-23T07:13:57.073Z,24.85
2023-04-23T07:14:57.161Z,24.85
2023-04-23T07:15:57.155Z,24.84
2023-04-23T07:16:57.230Z,24.84
2023-04-23T07:17:57.269Z,24.85
2023-04-23T07:18:57.291Z,24.85
2023-04-23T07:19:57.324Z,24.86
2023-04-23T07:20:57.369Z,24.86
2023-04-23T07:21:57.402Z,24.86
2023-04-23T07:22:57.484Z,24.87
2023-04-23T07:23:57.541Z,24.87
2023-04-23T07:24:57.526Z,24.87
2023-04-23T07:25:57.564Z,24.86
2023-04-23T07:26:57.607Z,24.87
2023-04-23T07:27:57.698Z,24.87
2023-04-23T07:28:57.746Z,24.88
2023-04-23T07:29:57.727Z,24.88
2023-04-23T07:30:57.789Z,24.88
2023-04-23T07:31:57.824Z,24.88
2023-04-23T07:32:58.595Z,24.89
2023-04-23T07:33:57.903Z,24.88
2023-04-23T07:34:57.955Z,24.88
2023-04-23T07:35:57.989Z,24.87
2023-04-23T07:36:58.057Z,24.88
2023-04-23T07:37:58.064Z,24.87
2023-04-23T07:38:58.096Z,24.87
2023-04-23T07:39:58.165Z,24.88
2023-04-23T07:40:58.187Z,24.88
2023-04-23T07:41:58.282Z,24.89
2023-04-23T07:42:58.350Z,24.90
2023-04-23T07:43:58.375Z,24.90
2023-04-23T07:44:58.420Z,24.91
2023-04-23T07:45:58.492Z,24.91
2023-04-23T07:46:58.516Z,24.90
2023-04-23T07:47:58.636Z,24.91
2023-04-23T07:48:58.617Z,24.93
2023-04-23T07:49:58.666Z,24.94
2023-04-23T07:50:58.748Z,24.95
2023-04-23T07:51:58.793Z,24.97
2023-04-23T07:52:58.859Z,24.97
2023-04-23T07:53:58.874Z,24.97
2023-04-23T07:54:58.941Z,24.97
2023-04-23T07:55:58.990Z,24.97
2023-04-23T07:56:59.006Z,24.98
2023-04-23T07:57:59.062Z,24.98
2023-04-23T07:58:59.086Z,24.97
2023-04-23T07:59:59.175Z,24.98
2023-04-23T08:00:59.208Z,24.98
2023-04-23T08:01:59.260Z,24.98
2023-04-23T08:02:59.403Z,24.98
2023-04-23T08:03:59.872Z,24.98
2023-04-23T08:04:59.501Z,24.99
2023-04-23T08:05:59.438Z,25.00
2023-04-23T08:06:59.481Z,25.00
2023-04-23T08:07:59.546Z,24.99
2023-04-23T08:08:59.617Z,24.99
2023-04-23T08:09:59.674Z,25.00
2023-04-23T08:10:59.696Z,25.00
2023-04-23T08:11:59.775Z,25.00
2023-04-23T08:12:59.790Z,25.01
2023-04-23T08:13:59.883Z,25.01
2023-04-23T08:14:59.938Z,25.02
2023-04-23T08:16:00.004Z,25.02
2023-04-23T08:17:00.005Z,25.04
2023-04-23T08:18:00.134Z,25.05
2023-04-23T08:19:05.479Z,25.04
2023-04-23T08:20:01.120Z,25.04
2023-04-23T08:21:00.135Z,25.05
2023-04-23T08:22:00.131Z,25.04
2023-04-23T08:23:00.125Z,25.05
2023-04-23T08:24:00.135Z,25.04
2023-04-23T08:25:00.150Z,25.05
2023-04-23T08:26:00.154Z,25.06
2023-04-23T08:27:00.149Z,25.06
2023-04-23T08:28:00.134Z,25.07
2023-04-23T08:29:00.187Z,25.07
2023-04-23T08:30:00.249Z,25.06
2023-04-23T08:31:00.355Z,25.06
2023-04-23T08:32:00.365Z,25.05
2023-04-23T08:33:00.424Z,25.04
2023-04-23T08:34:00.405Z,25.04
2023-04-23T08:35:00.453Z,25.04
2023-04-23T08:36:00.547Z,25.04
2023-04-23T08:37:00.560Z,25.05
2023-04-23T08:38:00.610Z,25.05
2023-04-23T08:39:00.679Z,25.05
2023-04-23T08:40:00.732Z,25.06
2023-04-23T08:41:00.723Z,25.05
2023-04-23T08:42:00.804Z,25.06
2023-04-23T08:43:00.804Z,25.06
2023-04-23T08:44:00.861Z,25.05
2023-04-23T08:45:00.923Z,25.04
2023-04-23T08:46:00.970Z,25.04
2023-04-23T08:47:01.060Z,25.03
2023-04-23T08:48:02.412Z,25.03
2023-04-23T08:49:01.136Z,25.03
2023-04-23T08:50:01.170Z,25.04
2023-04-23T08:51:01.232Z,25.03
2023-04-23T08:52:01.294Z,25.03
2023-04-23T08:53:01.308Z,25.03
2023-04-23T08:54:01.396Z,25.03
2023-04-23T08:55:01.427Z,25.02
2023-04-23T08:56:01.519Z,25.02
2023-04-23T08:57:01.568Z,25.02
2023-04-23T08:58:01.578Z,25.02
2023-04-23T08:59:01.656Z,25.03
2023-04-23T09:00:01.675Z,25.03
2023-04-23T09:01:01.764Z,25.03
2023-04-23T09:02:01.872Z,25.03
2023-04-23T09:03:01.944Z,25.03
2023-04-23T09:04:01.904Z,25.02
2023-04-23T09:05:01.849Z,25.00
2023-04-23T09:06:01.893Z,25.00
2023-04-23T09:07:01.968Z,24.99
2023-04-23T09:08:02.045Z,24.99
2023-04-23T09:09:02.072Z,24.99
2023-04-23T09:10:02.077Z,24.99
2023-04-23T09:11:02.099Z,25.00
2023-04-23T09:12:02.145Z,24.99
2023-04-23T09:13:02.180Z,24.98
2023-04-23T09:14:02.201Z,24.97
2023-04-23T09:15:02.235Z,24.96
2023-04-23T09:16:02.253Z,24.95
2023-04-23T09:17:02.219Z,24.94
2023-04-23T09:18:02.276Z,24.94
2023-04-23T09:19:02.276Z,24.95
2023-04-23T09:20:02.301Z,24.94
2023-04-23T09:21:02.278Z,24.94
2023-04-23T09:22:02.333Z,24.94
2023-04-23T09:23:02.320Z,24.93
2023-04-23T09:24:02.322Z,24.92
2023-04-23T09:25:02.323Z,24.92
2023-04-23T09:26:02.334Z,24.91
2023-04-23T09:27:02.347Z,24.92
2023-04-23T09:28:02.313Z,24.90
2023-04-23T09:29:02.368Z,24.91
2023-04-23T09:30:02.314Z,24.90
2023-04-23T09:31:02.345Z,24.90
2023-04-23T09:32:02.456Z,24.90
2023-04-23T09:33:02.430Z,24.89
2023-04-23T09:34:02.643Z,24.90
2023-04-23T09:35:02.404Z,24.89
2023-04-23T09:36:02.411Z,24.89
2023-04-23T09:37:02.421Z,24.89
2023-04-23T09:38:02.438Z,24.88
2023-04-23T09:39:02.405Z,24.88
2023-04-23T09:40:02.398Z,24.88
2023-04-23T09:41:02.451Z,24.88
2023-04-23T09:42:02.417Z,24.88
2023-04-23T09:43:02.415Z,24.87
2023-04-23T09:44:02.432Z,24.87
2023-04-23T09:45:02.392Z,24.87
2023-04-23T09:46:02.449Z,24.87
2023-04-23T09:47:02.432Z,24.86
2023-04-23T09:48:02.555Z,24.86
2023-04-23T09:49:02.431Z,24.86
2023-04-23T09:50:02.420Z,24.86
2023-04-23T09:51:02.415Z,24.85
2023-04-23T09:52:02.436Z,24.85
2023-04-23T09:53:02.408Z,24.85
2023-04-23T09:54:02.388Z,24.84
2023-04-23T09:55:02.421Z,24.83
2023-04-23T09:56:02.408Z,24.84
2023-04-23T09:57:02.404Z,24.85
2023-04-23T09:58:02.413Z,24.83
2023-04-23T09:59:02.490Z,24.83
2023-04-23T10:00:13.602Z,24.84
2023-04-23T10:01:03.401Z,24.82
2023-04-23T10:02:02.370Z,24.82
2023-04-23T10:03:02.422Z,24.82
2023-04-23T10:04:02.528Z,24.82
2023-04-23T10:05:14.570Z,24.82
2023-04-23T10:06:03.559Z,24.81
2023-04-23T10:08:03.317Z,24.80
2023-04-23T10:09:02.356Z,24.81
2023-04-23T10:10:02.324Z,24.81
2023-04-23T10:11:13.615Z,24.81
2023-04-23T10:12:03.341Z,24.80
2023-04-23T10:13:02.305Z,24.80
2023-04-23T10:14:02.287Z,24.80
2023-04-23T10:15:02.324Z,24.80
2023-04-23T10:16:14.016Z,24.81
2023-04-23T10:17:03.263Z,24.79
2023-04-23T10:18:02.283Z,24.79
2023-04-23T10:19:02.268Z,24.79
2023-04-23T10:20:02.274Z,24.79
2023-04-23T10:21:02.261Z,24.78
2023-04-23T10:22:17.773Z,24.78
2023-04-23T10:23:03.241Z,24.77
2023-04-23T10:24:02.236Z,24.77
2023-04-23T10:25:02.253Z,24.75
2023-04-23T10:26:02.193Z,24.76
2023-04-23T10:27:02.307Z,24.75
2023-04-23T10:28:02.177Z,24.76
2023-04-23T10:29:02.196Z,24.74
2023-04-23T10:30:03.248Z,24.74
2023-04-23T10:31:02.373Z,24.74
2023-04-23T10:32:02.341Z,24.73
2023-04-23T10:33:02.400Z,24.73
2023-04-23T10:34:02.453Z,24.73
2023-04-23T10:35:02.378Z,24.73
2023-04-23T10:36:02.375Z,24.73
2023-04-23T10:37:02.366Z,24.73
2023-04-23T10:38:02.349Z,24.72
2023-04-23T10:39:02.350Z,24.72
2023-04-23T10:40:02.356Z,24.72
2023-04-23T10:41:02.303Z,24.72
2023-04-23T10:42:02.342Z,24.72
2023-04-23T10:43:02.319Z,24.72
2023-04-23T10:44:02.301Z,24.71
2023-04-23T10:45:09.999Z,24.71
2023-04-23T10:46:03.326Z,24.71
2023-04-23T10:47:02.456Z,24.71
2023-04-23T10:48:02.335Z,24.70
2023-04-23T10:49:02.292Z,24.71
2023-04-23T10:50:02.277Z,24.70
2023-04-23T10:51:09.664Z,24.70
2023-04-23T10:52:17.740Z,24.70
2023-04-23T10:53:03.278Z,24.69
2023-04-23T10:54:02.247Z,24.68
2023-04-23T10:55:02.320Z,24.69
2023-04-23T10:56:02.249Z,24.69
2023-04-23T10:57:02.236Z,24.68
2023-04-23T10:58:02.870Z,24.69
2023-04-23T10:59:02.203Z,24.68
2023-04-23T11:00:02.243Z,24.69
2023-04-23T11:01:02.197Z,24.68
2023-04-23T11:02:02.255Z,24.69
2023-04-23T11:03:02.330Z,24.69
2023-04-23T11:04:02.277Z,24.68
2023-04-23T11:05:02.310Z,24.68
2023-04-23T11:06:02.180Z,24.68
2023-04-23T11:07:02.161Z,24.67
2023-04-23T11:08:10.961Z,24.67
2023-04-23T11:09:03.188Z,24.67
2023-04-23T11:10:02.126Z,24.67
2023-04-23T11:11:02.139Z,24.67
2023-04-23T11:12:02.140Z,24.67
2023-04-23T11:13:02.100Z,24.66
2023-04-23T11:14:02.141Z,24.66
2023-04-23T11:15:02.166Z,24.65
2023-04-23T11:16:02.145Z,24.65
2023-04-23T11:17:02.104Z,24.65
2023-04-23T11:18:02.220Z,24.65
2023-04-23T11:19:02.114Z,24.65
2023-04-23T11:20:02.155Z,24.65
2023-04-23T11:21:02.058Z,24.65
2023-04-23T11:22:02.117Z,24.64
2023-04-23T11:23:02.064Z,24.64
2023-04-23T11:24:02.049Z,24.64
2023-04-23T11:25:02.033Z,24.64
2023-04-23T11:26:02.066Z,24.64
2023-04-23T11:27:02.041Z,24.63
2023-04-23T11:28:02.022Z,24.64
2023-04-23T11:29:02.008Z,24.63
2023-04-23T11:30:02.054Z,24.63
2023-04-23T11:31:02.004Z,24.63
2023-04-23T11:32:03.585Z,24.63
2023-04-23T11:33:02.386Z,24.63
2023-04-23T11:34:02.025Z,24.63
2023-04-23T11:35:01.992Z,24.63
2023-04-23T11:36:01.977Z,24.63
2023-04-23T11:37:01.971Z,24.62
2023-04-23T11:38:01.941Z,24.63
2023-04-23T11:39:01.964Z,24.63
2023-04-23T11:40:01.935Z,24.63
2023-04-23T11:41:01.944Z,24.63
2023-04-23T11:42:01.939Z,24.62
2023-04-23T11:43:01.934Z,24.63
2023-04-23T11:44:01.922Z,24.63
2023-04-23T11:45:01.949Z,24.63
2023-04-23T11:46:01.931Z,24.63
2023-04-23T11:47:01.922Z,24.63
2023-04-23T11:48:01.915Z,24.63
2023-04-23T11:49:01.887Z,24.64
2023-04-23T11:50:01.886Z,24.63
2023-04-23T11:51:01.888Z,24.63
2023-04-23T11:52:01.917Z,24.64
2023-04-23T11:53:01.893Z,24.64
2023-04-23T11:54:01.957Z,24.64
2023-04-23T11:55:01.964Z,24.64
2023-04-23T11:56:01.944Z,24.64
2023-04-23T11:57:01.962Z,24.64
2023-04-23T11:58:01.982Z,24.64
2023-04-23T11:59:01.984Z,24.63
2023-04-23T12:00:01.994Z,24.64
2023-04-23T12:01:02.011Z,24.64
2023-04-23T12:02:02.029Z,24.64
2023-04-23T12:03:02.259Z,24.65
2023-04-23T12:04:02.318Z,24.65
2023-04-23T12:05:02.049Z,24.65
2023-04-23T12:06:02.009Z,24.67
2023-04-23T12:07:04.277Z,24.67
2023-04-23T12:08:03.013Z,24.67
2023-04-23T12:09:02.006Z,24.68
2023-04-23T12:10:01.996Z,24.70
2023-04-23T12:11:02.011Z,24.70
2023-04-23T12:12:02.002Z,24.70
2023-04-23T12:13:01.980Z,24.69
2023-04-23T12:14:01.997Z,24.69
2023-04-23T12:15:02.011Z,24.68
2023-04-23T12:16:02.004Z,24.68
2023-04-23T12:17:01.955Z,24.68
2023-04-23T12:18:01.984Z,24.68
2023-04-23T12:19:01.922Z,24.68
2023-04-23T12:20:01.927Z,24.68
2023-04-23T12:21:01.937Z,24.68
2023-04-23T12:22:01.920Z,24.69
2023-04-23T12:23:01.899Z,24.70
2023-04-23T12:24:01.897Z,24.70
2023-04-23T12:25:01.912Z,24.71
2023-04-23T12:26:01.897Z,24.72
2023-04-23T12:27:01.927Z,24.73
2023-04-23T12:28:01.906Z,24.73
2023-04-23T12:29:01.866Z,24.73
2023-04-23T12:30:02.960Z,24.73
2023-04-23T12:31:01.902Z,24.73
2023-04-23T12:32:01.855Z,24.74
2023-04-23T12:33:01.889Z,24.76
2023-04-23T12:34:01.833Z,24.78
2023-04-23T12:35:01.837Z,24.79
2023-04-23T12:36:01.815Z,24.79
2023-04-23T12:37:01.830Z,24.80
2023-04-23T12:38:01.834Z,24.81
2023-04-23T12:39:01.837Z,24.82
2023-04-23T12:40:01.819Z,24.82
2023-04-23T12:41:01.873Z,24.83
2023-04-23T12:42:01.825Z,24.83
2023-04-23T12:43:01.809Z,24.83
2023-04-23T12:44:01.775Z,24.83
2023-04-23T12:45:01.790Z,24.81
2023-04-23T12:46:01.765Z,24.81
2023-04-23T12:47:01.812Z,24.81
2023-04-23T12:48:01.807Z,24.81
2023-04-23T12:49:01.767Z,24.81
2023-04-23T12:50:01.774Z,24.82
2023-04-23T12:51:01.712Z,24.83
2023-04-23T12:52:01.754Z,24.83
2023-04-23T12:53:01.753Z,24.83
2023-04-23T12:54:01.745Z,24.83